Thai Dawn — V7EO6 — position and weather

sailwx.info

Track history (hours):
 
Tides and Currents Weather Stations Pressure Air Temp Water Temp Dewpoint Dewpoint Depression Visibility Wind Speed Wind Dir Waves Ship Positions

Thai Dawn

Last reported at 2014-Oct-01 12:08 UTC. Time now 2014-Oct-21 16:53 UTC.
Position N 01°16' E 104°10'.
Warning: this ship's position is 20 days out of date.

Length 169 m; draft 7.5 m.

Type: Cargo ship. MMSI: 538001841.

Date/timePositionNaut miles runAvg speedWind from/ knotsBaromVisibWave heightAir tempDewpointWater temp
2014-Oct-01 12:08N 01°16' E 104°10'812.2
2014-Oct-01 11:29N 01°21' E 104°03'7 0.5
2014-Sep-30 22:25N 01°27' E 104°01'0 0.0
2014-Sep-30 18:22N 01°27' E 104°01'1 0.3
2014-Sep-30 14:32N 01°26' E 104°01'9 0.2
2014-Sep-28 15:16N 01°19' E 104°06'0 0.0
2014-Sep-27 07:12N 01°19' E 104°07'2 3.0
2014-Sep-27 06:33N 01°19' E 104°05'1 1.4
2014-Sep-27 05:33N 01°18' E 104°04'0 0.0
2014-Sep-27 04:33N 01°18' E 104°04'0 0.1
2014-Sep-27 03:33N 01°18' E 104°04'0 0.0
2014-Sep-27 02:33N 01°18' E 104°04'0 0.0
2014-Sep-27 01:32N 01°18' E 104°04'0 0.1
2014-Sep-27 00:34N 01°18' E 104°04'0 0.0
2014-Sep-26 23:14N 01°18' E 104°04'0 0.1
2014-Sep-26 22:33N 01°18' E 104°04'0 0.1
2014-Sep-26 21:31N 01°18' E 104°04'0 0.0
2014-Sep-26 20:33N 01°18' E 104°04'0 0.0
2014-Sep-26 19:33N 01°18' E 104°04'0 0.0
2014-Sep-26 18:33N 01°18' E 104°04'  
Track history (hours):
 
Tides and Currents Weather Stations Pressure Air Temp Water Temp Dewpoint Dewpoint Depression Visibility Wind Speed Wind Dir Waves Ship Positions

Thai Dawn

Last reported at 2014-Oct-01 12:08 UTC. Time now 2014-Oct-21 16:53 UTC.
Position N 01°16' E 104°10'.
Warning: this ship's position is 20 days out of date.

Length 169 m; draft 7.5 m.

Type: Cargo ship. MMSI: 538001841.

Date/timePositionNaut miles runAvg speedWind from/ knotsBaromVisibWave heightAir tempDewpointWater temp
2014-Oct-01 12:08N 01°16' E 104°10'812.2
2014-Oct-01 11:29N 01°21' E 104°03'7 0.5
2014-Sep-30 22:25N 01°27' E 104°01'0 0.0
2014-Sep-30 18:22N 01°27' E 104°01'1 0.3
2014-Sep-30 14:32N 01°26' E 104°01'9 0.2
2014-Sep-28 15:16N 01°19' E 104°06'0 0.0
2014-Sep-27 07:12N 01°19' E 104°07'2 3.0
2014-Sep-27 06:33N 01°19' E 104°05'1 1.4
2014-Sep-27 05:33N 01°18' E 104°04'0 0.0
2014-Sep-27 04:33N 01°18' E 104°04'0 0.1
2014-Sep-27 03:33N 01°18' E 104°04'0 0.0
2014-Sep-27 02:33N 01°18' E 104°04'0 0.0
2014-Sep-27 01:32N 01°18' E 104°04'0 0.1
2014-Sep-27 00:34N 01°18' E 104°04'0 0.0
2014-Sep-26 23:14N 01°18' E 104°04'0 0.1
2014-Sep-26 22:33N 01°18' E 104°04'0 0.1
2014-Sep-26 21:31N 01°18' E 104°04'0 0.0
2014-Sep-26 20:33N 01°18' E 104°04'0 0.0
2014-Sep-26 19:33N 01°18' E 104°04'0 0.0
2014-Sep-26 18:33N 01°18' E 104°04'  

Dump ship's entire track history